createdAt,value
2022-10-29T00:00:30.690Z,1027.0
2022-10-29T00:15:24.122Z,1027.0
2022-10-29T00:30:29.215Z,1027.0
2022-10-29T00:45:24.218Z,1027.0
2022-10-29T01:00:24.367Z,1027.0
2022-10-29T01:15:24.320Z,1027.0
2022-10-29T01:30:24.191Z,1027.0
2022-10-29T01:45:24.210Z,1027.0
2022-10-29T02:00:27.601Z,1027.0
2022-10-29T02:15:24.073Z,1027.0
2022-10-29T02:30:33.481Z,1027.0
2022-10-29T02:45:33.314Z,1027.0
2022-10-29T03:00:35.738Z,1026.7
2022-10-29T03:15:23.518Z,1026.5
2022-10-29T03:30:26.220Z,1026.0
2022-10-29T03:45:23.377Z,1026.0
2022-10-29T04:00:27.066Z,1026.0
2022-10-29T04:15:23.397Z,1026.0
2022-10-29T04:30:23.559Z,1026.0
2022-10-29T04:45:23.737Z,1026.0
2022-10-29T05:00:27.159Z,1026.0
2022-10-29T05:15:23.546Z,1026.0
2022-10-29T05:30:24.853Z,1026.0
2022-10-29T05:45:23.858Z,1026.0
2022-10-29T06:00:35.109Z,1026.3
2022-10-29T06:15:23.618Z,1026.0
2022-10-29T06:30:23.783Z,1026.7
2022-10-29T06:45:23.811Z,1027.0
2022-10-29T07:00:23.786Z,1027.0
2022-10-29T07:15:27.368Z,1027.0
2022-10-29T07:30:23.738Z,1027.0
2022-10-29T07:45:23.841Z,1027.0
2022-10-29T08:00:30.267Z,1027.0
2022-10-29T08:15:24.034Z,1027.0
2022-10-29T08:30:24.657Z,1026.0
2022-10-29T08:45:23.808Z,1026.0
2022-10-29T09:00:23.850Z,1026.0
2022-10-29T09:15:24.039Z,1026.0
2022-10-29T09:30:23.851Z,1026.0
2022-10-29T09:45:23.918Z,1026.0
2022-10-29T10:00:23.963Z,1026.0
2022-10-29T10:15:23.834Z,1026.0
2022-10-29T10:30:23.810Z,1026.0
2022-10-29T10:45:23.817Z,1026.0
2022-10-29T11:00:33.027Z,1026.0
2022-10-29T11:15:23.938Z,1025.0
2022-10-29T11:30:24.015Z,1025.0
2022-10-29T11:45:24.211Z,1025.0
2022-10-29T12:00:24.553Z,1025.0
2022-10-29T12:15:24.135Z,1025.0
2022-10-29T12:30:24.547Z,1024.3
2022-10-29T12:45:23.943Z,1024.0
2022-10-29T13:00:40.827Z,1024.0
2022-10-29T13:15:24.721Z,1024.0
2022-10-29T13:30:24.160Z,1024.0
2022-10-29T13:45:24.032Z,1024.0
2022-10-29T14:00:36.947Z,1024.0
2022-10-29T14:15:24.456Z,1024.0
2022-10-29T14:30:26.082Z,1024.0
2022-10-29T14:45:23.999Z,1024.0
2022-10-29T15:00:30.455Z,1024.0
2022-10-29T15:15:24.146Z,1024.0
2022-10-29T15:30:25.973Z,1024.0
2022-10-29T15:45:24.240Z,1024.0
2022-10-29T16:00:36.995Z,1024.0
2022-10-29T16:15:24.157Z,1024.0
2022-10-29T16:30:33.310Z,1024.0
2022-10-29T16:45:33.465Z,1024.0
2022-10-29T17:00:34.354Z,1024.0
2022-10-29T17:15:23.815Z,1024.0
2022-10-29T17:30:23.728Z,1024.0
2022-10-29T17:45:23.465Z,1024.0
2022-10-29T18:00:42.015Z,1024.0
2022-10-29T18:15:23.814Z,1024.0
2022-10-29T18:30:28.488Z,1024.0
2022-10-29T18:45:23.381Z,1024.0
2022-10-29T19:00:34.063Z,1024.0
2022-10-29T19:15:23.581Z,1024.0
2022-10-29T19:30:23.670Z,1024.0
2022-10-29T19:45:23.652Z,1024.0
2022-10-29T20:00:28.753Z,1024.0
2022-10-29T20:15:23.579Z,1024.0
2022-10-29T20:30:24.130Z,1024.0
2022-10-29T20:45:24.078Z,1024.0
2022-10-29T21:00:25.305Z,1024.0
2022-10-29T21:15:23.657Z,1024.0
2022-10-29T21:30:23.775Z,1024.0
2022-10-29T21:45:23.788Z,1024.0
2022-10-29T22:15:23.835Z,1024.0
2022-10-29T22:30:23.946Z,1024.0
2022-10-29T22:45:23.653Z,1024.0
2022-10-29T23:00:26.594Z,1024.0
2022-10-29T23:15:23.896Z,1024.0
2022-10-29T23:30:24.733Z,1024.0
2022-10-29T23:45:23.903Z,1024.0
